createdAt,value
2017-09-08T00:01:03.031Z,28.00
2017-09-08T00:03:36.477Z,28.20
2017-09-08T00:06:07.162Z,28.30
2017-09-08T00:08:37.607Z,28.50
2017-09-08T00:11:08.185Z,28.60
2017-09-08T00:13:38.836Z,28.80
2017-09-08T00:16:09.297Z,28.80
2017-09-08T00:18:41.043Z,29.00
2017-09-08T00:21:11.556Z,29.00
2017-09-08T00:23:42.490Z,29.10
2017-09-08T00:26:13.097Z,29.20
2017-09-08T00:28:43.609Z,29.30
2017-09-08T00:31:14.137Z,29.30
2017-09-08T00:33:44.649Z,29.40
2017-09-08T00:36:15.600Z,29.40
2017-09-08T00:38:46.181Z,29.50
2017-09-08T00:41:16.728Z,29.60
2017-09-08T00:43:47.208Z,29.60
2017-09-08T00:46:17.835Z,29.60
2017-09-08T00:48:48.738Z,29.50
2017-09-08T00:51:19.250Z,29.50
2017-09-08T00:53:50.710Z,29.40
2017-09-08T00:56:21.215Z,29.40
2017-09-08T00:58:51.790Z,29.30
2017-09-08T01:01:22.420Z,29.30
2017-09-08T01:03:53.073Z,29.30
2017-09-08T01:06:24.029Z,29.40
2017-09-08T01:08:54.656Z,29.50
2017-09-08T01:11:25.165Z,29.50
2017-09-08T01:13:55.740Z,29.50
2017-09-08T01:16:26.309Z,29.50
2017-09-08T01:18:56.974Z,29.50
2017-09-08T01:21:27.853Z,29.60
2017-09-08T01:23:59.245Z,30.00
2017-09-08T01:26:29.843Z,29.90
2017-09-08T01:29:00.480Z,30.00
2017-09-08T01:31:31.001Z,30.20
2017-09-08T01:34:01.523Z,30.30
2017-09-08T01:36:33.499Z,30.50
2017-09-08T01:39:04.014Z,30.50
2017-09-08T01:41:35.061Z,30.70
2017-09-08T01:44:05.685Z,30.70
2017-09-08T01:46:36.338Z,30.80
2017-09-08T01:49:06.950Z,30.90
2017-09-08T01:51:38.330Z,31.00
2017-09-08T01:54:08.925Z,31.00
2017-09-08T01:56:39.530Z,31.00
2017-09-08T01:59:10.082Z,31.00
2017-09-08T02:01:40.559Z,30.90
2017-09-08T02:04:11.122Z,30.80
2017-09-08T02:06:42.204Z,30.80
2017-09-08T02:09:12.780Z,30.80
2017-09-08T02:11:44.666Z,30.80
2017-09-08T02:14:15.284Z,30.90
2017-09-08T02:16:45.871Z,31.00
2017-09-08T02:19:16.420Z,31.10
2017-09-08T02:21:51.988Z,31.20
2017-09-08T02:24:22.835Z,31.30
2017-09-08T02:26:53.385Z,31.30
2017-09-08T02:29:23.891Z,31.30
2017-09-08T02:31:54.511Z,31.20
2017-09-08T02:34:25.141Z,31.20
2017-09-08T02:36:56.120Z,31.10
2017-09-08T02:39:26.734Z,31.30
2017-09-08T02:41:58.013Z,31.70
2017-09-08T02:44:28.707Z,31.70
2017-09-08T02:46:59.561Z,32.00
2017-09-08T02:49:30.953Z,32.00
2017-09-08T02:52:01.531Z,32.00
2017-09-08T02:54:33.331Z,32.10
2017-09-08T02:57:03.940Z,32.10
2017-09-08T02:59:34.632Z,32.10
2017-09-08T03:02:05.152Z,32.20
2017-09-08T03:04:35.675Z,32.20
2017-09-08T03:07:06.717Z,32.30
2017-09-08T03:09:37.307Z,32.20
2017-09-08T03:12:08.451Z,32.30
2017-09-08T03:14:38.921Z,32.30
2017-09-08T03:17:09.395Z,32.40
2017-09-08T03:19:39.930Z,32.60
2017-09-08T03:22:10.504Z,32.80
2017-09-08T03:24:41.586Z,33.00
2017-09-08T03:27:12.210Z,33.20
2017-09-08T03:29:43.905Z,33.30
2017-09-08T03:32:14.540Z,33.30
2017-09-08T03:34:45.152Z,33.50
2017-09-08T03:37:15.702Z,33.60
2017-09-08T03:39:46.320Z,33.80
2017-09-08T03:42:17.674Z,33.90
2017-09-08T03:44:48.251Z,34.10
2017-09-08T03:47:18.884Z,34.20
2017-09-08T03:49:49.446Z,34.40
2017-09-08T03:52:20.024Z,34.40
2017-09-08T03:54:50.707Z,34.60
2017-09-08T03:57:21.316Z,34.70
2017-09-08T03:59:53.099Z,35.00
2017-09-08T04:02:24.561Z,34.90
2017-09-08T04:04:55.128Z,34.70
2017-09-08T04:07:25.757Z,34.40
2017-09-08T04:09:56.635Z,34.10
2017-09-08T04:12:27.607Z,33.80
2017-09-08T04:14:58.245Z,33.50
2017-09-08T04:17:28.787Z,33.30
2017-09-08T04:19:59.407Z,33.10
2017-09-08T04:22:29.949Z,32.90
2017-09-08T04:25:00.872Z,33.00
2017-09-08T04:27:31.533Z,33.30
2017-09-08T04:30:02.500Z,33.70
2017-09-08T04:32:33.011Z,33.90
2017-09-08T04:35:03.629Z,34.00
2017-09-08T04:37:34.207Z,34.00
2017-09-08T04:40:04.869Z,33.90
2017-09-08T04:42:35.884Z,33.90
2017-09-08T04:45:06.755Z,34.10
2017-09-08T04:47:37.819Z,34.20
2017-09-08T04:50:08.490Z,34.50
2017-09-08T04:52:38.864Z,34.70
2017-09-08T04:55:09.326Z,34.80
2017-09-08T04:57:39.871Z,35.00
2017-09-08T05:00:11.082Z,35.20
2017-09-08T05:02:41.764Z,35.20
2017-09-08T05:05:13.214Z,35.00
2017-09-08T05:07:43.741Z,34.80
2017-09-08T05:10:14.303Z,34.80
2017-09-08T05:12:45.452Z,35.00
2017-09-08T05:15:16.151Z,35.00
2017-09-08T05:17:47.295Z,34.90
2017-09-08T05:20:17.995Z,34.70
2017-09-08T05:22:49.316Z,34.20
2017-09-08T05:25:19.923Z,34.20
2017-09-08T05:27:51.128Z,33.90
2017-09-08T05:30:22.917Z,33.60
2017-09-08T05:32:53.464Z,33.60
2017-09-08T05:35:24.020Z,33.50
2017-09-08T05:37:54.703Z,33.40
2017-09-08T05:40:25.301Z,33.30
2017-09-08T05:42:56.960Z,33.20
2017-09-08T05:45:28.303Z,33.20
2017-09-08T05:47:59.881Z,33.10
2017-09-08T05:50:30.393Z,33.10
2017-09-08T05:53:00.944Z,33.00
2017-09-08T05:55:31.511Z,32.90
2017-09-08T05:58:02.106Z,32.80
2017-09-08T06:00:32.910Z,32.80
2017-09-08T06:03:03.385Z,32.70
2017-09-08T06:05:33.964Z,32.60
2017-09-08T06:08:04.581Z,32.50
2017-09-08T06:10:35.156Z,32.50
2017-09-08T06:13:05.667Z,32.50
2017-09-08T06:15:36.297Z,32.40
2017-09-08T06:18:08.033Z,32.40
2017-09-08T06:20:38.620Z,32.40
2017-09-08T06:23:09.202Z,32.40
2017-09-08T06:25:39.844Z,32.40
2017-09-08T06:28:10.399Z,32.50
2017-09-08T06:30:41.303Z,32.40
2017-09-08T06:33:11.884Z,32.40
2017-09-08T06:35:42.875Z,32.40
2017-09-08T06:38:14.062Z,32.30
2017-09-08T06:40:44.653Z,32.30
2017-09-08T06:43:15.140Z,32.30
2017-09-08T06:45:45.725Z,32.30
2017-09-08T06:48:16.642Z,32.40
2017-09-08T06:50:47.140Z,32.30
2017-09-08T06:53:17.704Z,32.40
2017-09-08T06:55:48.297Z,32.30
2017-09-08T06:58:20.477Z,32.50
2017-09-08T07:00:51.466Z,32.70
2017-09-08T07:03:22.039Z,32.80
2017-09-08T07:05:52.949Z,32.70
2017-09-08T07:08:23.469Z,32.60
2017-09-08T07:10:54.102Z,32.40
2017-09-08T07:13:24.627Z,32.40
2017-09-08T07:15:55.264Z,32.30
2017-09-08T07:18:26.253Z,32.30
2017-09-08T07:20:56.800Z,32.30
2017-09-08T07:23:27.361Z,32.30
2017-09-08T07:25:58.487Z,32.20
2017-09-08T07:28:28.951Z,32.20
2017-09-08T07:31:04.692Z,32.10
2017-09-08T07:33:35.306Z,32.00
2017-09-08T07:36:06.511Z,32.00
2017-09-08T07:38:37.018Z,32.00
2017-09-08T07:41:07.527Z,32.00
2017-09-08T07:43:38.141Z,32.10
2017-09-08T07:46:08.635Z,32.10
2017-09-08T07:48:40.339Z,32.30
2017-09-08T07:51:10.918Z,32.30
2017-09-08T07:53:42.311Z,32.70
2017-09-08T07:56:12.888Z,32.70
2017-09-08T07:58:43.439Z,33.00
2017-09-08T08:01:14.076Z,33.20
2017-09-08T08:03:44.800Z,33.30
2017-09-08T08:06:16.562Z,33.70
2017-09-08T08:08:47.195Z,33.70
2017-09-08T08:11:17.735Z,33.70
2017-09-08T08:13:49.083Z,33.80
2017-09-08T08:16:19.600Z,33.50
2017-09-08T08:18:50.985Z,33.20
2017-09-08T08:21:21.479Z,33.20
2017-09-08T08:23:52.415Z,33.00
2017-09-08T08:26:23.021Z,32.80
2017-09-08T08:28:53.564Z,32.60
2017-09-08T08:31:24.150Z,32.50
2017-09-08T08:33:54.711Z,32.40
2017-09-08T08:36:25.631Z,32.20
2017-09-08T08:38:56.219Z,32.10
2017-09-08T08:41:26.721Z,31.90
2017-09-08T08:43:57.199Z,31.90
2017-09-08T08:46:27.738Z,31.70
2017-09-08T08:48:58.730Z,31.70
2017-09-08T08:51:29.246Z,31.60
2017-09-08T08:54:00.811Z,31.50
2017-09-08T08:56:31.344Z,31.50
2017-09-08T08:59:01.828Z,31.40
2017-09-08T09:01:32.393Z,31.40
2017-09-08T09:04:03.653Z,31.30
2017-09-08T09:06:34.672Z,31.30
2017-09-08T09:09:05.277Z,31.30
2017-09-08T09:11:35.941Z,31.30
2017-09-08T09:14:07.159Z,31.30
2017-09-08T09:16:37.751Z,31.30
2017-09-08T09:19:08.284Z,31.30
2017-09-08T09:21:38.824Z,31.30
2017-09-08T09:24:09.408Z,31.30
2017-09-08T09:26:39.865Z,31.40
2017-09-08T09:29:10.380Z,31.40
2017-09-08T09:31:40.891Z,31.30
2017-09-08T09:34:11.286Z,31.30
2017-09-08T09:36:41.904Z,31.30
2017-09-08T09:39:12.557Z,31.20
2017-09-08T09:41:43.267Z,31.20
2017-09-08T09:44:13.687Z,31.20
2017-09-08T09:46:44.306Z,31.20
2017-09-08T09:49:17.125Z,31.20
2017-09-08T09:51:47.806Z,31.10
2017-09-08T09:54:18.903Z,31.10
2017-09-08T09:56:49.444Z,31.10
2017-09-08T09:59:19.876Z,31.10
2017-09-08T10:01:51.203Z,31.10
2017-09-08T10:04:21.707Z,31.10
2017-09-08T10:06:52.734Z,31.10
2017-09-08T10:09:24.193Z,31.00
2017-09-08T10:11:55.169Z,31.00
2017-09-08T10:14:25.667Z,30.90
2017-09-08T10:16:56.177Z,30.90
2017-09-08T10:19:26.547Z,30.90
2017-09-08T10:21:56.985Z,30.90
2017-09-08T10:24:28.719Z,30.90
2017-09-08T10:26:59.239Z,30.90
2017-09-08T10:29:29.988Z,30.90
2017-09-08T10:32:00.547Z,30.80
2017-09-08T10:34:31.314Z,30.70
2017-09-08T10:37:01.788Z,30.60
2017-09-08T10:39:33.049Z,30.40
2017-09-08T10:42:04.679Z,30.40
2017-09-08T10:44:35.131Z,30.30
2017-09-08T10:47:05.736Z,30.20
2017-09-08T10:49:36.294Z,30.00
2017-09-08T10:52:06.785Z,29.80
2017-09-08T10:54:37.832Z,29.50
2017-09-08T10:57:08.329Z,29.30
2017-09-08T10:59:39.333Z,29.00
2017-09-08T11:02:09.901Z,28.80
2017-09-08T11:04:40.427Z,28.60
2017-09-08T11:07:10.853Z,28.50
2017-09-08T11:09:41.306Z,28.50
2017-09-08T11:12:12.137Z,28.50
2017-09-08T11:14:42.604Z,28.60
2017-09-08T11:17:13.142Z,28.70
2017-09-08T11:19:44.415Z,28.80
2017-09-08T11:22:14.963Z,28.70
2017-09-08T11:24:45.433Z,28.80
2017-09-08T11:27:15.855Z,28.80
2017-09-08T11:29:47.624Z,28.70
2017-09-08T11:32:18.313Z,28.60
2017-09-08T11:34:53.665Z,28.50
2017-09-08T11:37:24.147Z,28.50
2017-09-08T11:39:54.971Z,28.40
2017-09-08T11:42:26.688Z,28.40
2017-09-08T11:44:57.173Z,28.40
2017-09-08T11:47:27.643Z,28.30
2017-09-08T11:49:58.154Z,28.30
2017-09-08T11:52:28.657Z,28.30
2017-09-08T11:54:59.176Z,28.30
2017-09-08T11:57:29.762Z,28.30
2017-09-08T12:00:00.324Z,28.30
2017-09-08T12:02:30.819Z,28.40
2017-09-08T12:05:01.333Z,28.40
2017-09-08T12:07:31.904Z,28.50
2017-09-08T12:10:02.447Z,28.50
2017-09-08T12:12:33.145Z,28.40
2017-09-08T12:15:03.644Z,28.40
2017-09-08T12:17:34.757Z,28.40
2017-09-08T12:20:05.267Z,28.30
2017-09-08T12:22:35.759Z,28.20
2017-09-08T12:25:06.312Z,28.20
2017-09-08T12:27:38.404Z,28.20
2017-09-08T12:30:09.305Z,28.20
2017-09-08T12:32:39.784Z,28.20
2017-09-08T12:35:10.318Z,28.20
2017-09-08T12:37:41.879Z,28.10
2017-09-08T12:40:12.488Z,28.10
2017-09-08T12:42:43.583Z,28.10
2017-09-08T12:45:14.035Z,28.10
2017-09-08T12:47:45.712Z,28.10
2017-09-08T12:50:16.261Z,28.10
2017-09-08T12:52:46.762Z,28.10
2017-09-08T12:55:17.268Z,28.00
2017-09-08T12:57:48.535Z,28.00
2017-09-08T13:00:19.352Z,28.00
2017-09-08T13:02:49.911Z,28.00
2017-09-08T13:05:20.368Z,27.90
2017-09-08T13:07:50.825Z,27.90
2017-09-08T13:10:21.295Z,27.80
2017-09-08T13:12:51.852Z,27.80
2017-09-08T13:15:22.333Z,27.80
2017-09-08T13:17:53.135Z,27.70
2017-09-08T13:20:23.627Z,27.60
2017-09-08T13:22:54.091Z,27.60
2017-09-08T13:25:24.657Z,27.60
2017-09-08T13:27:55.232Z,27.60
2017-09-08T13:30:26.094Z,27.60
2017-09-08T13:32:56.710Z,27.70
2017-09-08T13:35:27.580Z,27.80
2017-09-08T13:37:58.156Z,27.80
2017-09-08T13:40:28.598Z,27.90
2017-09-08T13:42:59.116Z,27.80
2017-09-08T13:45:29.671Z,27.80
2017-09-08T13:48:00.617Z,27.80
2017-09-08T13:50:31.115Z,27.80
2017-09-08T13:53:01.596Z,27.80
2017-09-08T13:55:32.851Z,27.70
2017-09-08T13:58:03.286Z,27.70
2017-09-08T14:00:34.901Z,27.80
2017-09-08T14:03:05.278Z,27.70
2017-09-08T14:05:36.121Z,27.70
2017-09-08T14:08:06.668Z,27.70
2017-09-08T14:10:37.101Z,27.70
2017-09-08T14:13:07.672Z,27.70
2017-09-08T14:15:38.190Z,27.60
2017-09-08T14:18:09.903Z,27.60
2017-09-08T14:20:40.481Z,27.60
2017-09-08T14:23:11.086Z,27.60
2017-09-08T14:25:41.638Z,27.70
2017-09-08T14:28:12.200Z,27.60
2017-09-08T14:30:42.689Z,27.60
2017-09-08T14:33:13.924Z,27.70
2017-09-08T14:35:44.588Z,27.70
2017-09-08T14:38:15.204Z,27.70
2017-09-08T14:40:45.748Z,27.70
2017-09-08T14:43:16.285Z,27.80
2017-09-08T14:45:46.761Z,27.80
2017-09-08T14:48:17.756Z,27.80
2017-09-08T14:50:48.262Z,27.80
2017-09-08T14:53:19.989Z,27.70
2017-09-08T14:55:51.266Z,27.60
2017-09-08T14:58:22.854Z,27.60
2017-09-08T15:00:53.398Z,27.60
2017-09-08T15:03:23.915Z,27.50
2017-09-08T15:05:54.816Z,27.50
2017-09-08T15:08:25.291Z,27.50
2017-09-08T15:10:55.774Z,27.50
2017-09-08T15:13:26.292Z,27.50
2017-09-08T15:15:56.775Z,27.50
2017-09-08T15:18:27.720Z,27.50
2017-09-08T15:20:58.163Z,27.50
2017-09-08T15:23:29.003Z,27.40
2017-09-08T15:25:59.556Z,27.40
2017-09-08T15:28:30.012Z,27.40
2017-09-08T15:31:00.550Z,27.30
2017-09-08T15:33:31.107Z,27.30
2017-09-08T15:36:02.143Z,27.30
2017-09-08T15:38:32.812Z,27.20
2017-09-08T15:41:04.232Z,27.20
2017-09-08T15:43:34.728Z,27.20
2017-09-08T15:46:05.351Z,27.20
2017-09-08T15:48:35.814Z,27.30
2017-09-08T15:51:06.392Z,27.30
2017-09-08T15:53:37.198Z,27.30
2017-09-08T15:56:07.890Z,27.40
2017-09-08T15:58:38.416Z,27.40
2017-09-08T16:01:08.935Z,27.50
2017-09-08T16:03:39.487Z,27.50
2017-09-08T16:06:10.480Z,27.60
2017-09-08T16:08:42.581Z,27.60
2017-09-08T16:11:13.143Z,27.60
2017-09-08T16:13:43.857Z,27.60
2017-09-08T16:16:14.401Z,27.60
2017-09-08T16:18:45.039Z,27.60
2017-09-08T16:21:15.611Z,27.70
2017-09-08T16:23:46.102Z,27.70
2017-09-08T16:26:16.670Z,27.70
2017-09-08T16:28:47.259Z,27.60
2017-09-08T16:31:17.763Z,27.60
2017-09-08T16:33:48.302Z,27.60
2017-09-08T16:36:18.860Z,27.50
2017-09-08T16:38:50.213Z,27.50
2017-09-08T16:41:22.056Z,27.50
2017-09-08T16:43:52.593Z,27.40
2017-09-08T16:46:23.160Z,27.50
2017-09-08T16:48:53.801Z,27.50
2017-09-08T16:51:24.238Z,27.50
2017-09-08T16:53:55.601Z,27.50
2017-09-08T16:56:26.065Z,27.60
2017-09-08T16:58:56.746Z,27.60
2017-09-08T17:01:27.253Z,27.60
2017-09-08T17:03:57.772Z,27.60
2017-09-08T17:06:28.211Z,27.60
2017-09-08T17:09:02.723Z,27.70
2017-09-08T17:11:33.346Z,27.70
2017-09-08T17:14:03.847Z,27.70
2017-09-08T17:16:35.276Z,27.70
2017-09-08T17:19:05.926Z,27.70
2017-09-08T17:21:36.633Z,27.60
2017-09-08T17:24:07.739Z,27.60
2017-09-08T17:26:38.459Z,27.50
2017-09-08T17:29:09.286Z,27.40
2017-09-08T17:31:39.747Z,27.40
2017-09-08T17:34:10.271Z,27.40
2017-09-08T17:36:40.786Z,27.30
2017-09-08T17:39:11.296Z,27.30
2017-09-08T17:41:43.035Z,27.20
2017-09-08T17:44:13.488Z,27.20
2017-09-08T17:46:44.729Z,27.20
2017-09-08T17:49:15.244Z,27.20
2017-09-08T17:51:46.507Z,27.20
2017-09-08T17:54:17.456Z,27.20
2017-09-08T17:56:48.039Z,27.20
2017-09-08T17:59:18.796Z,27.20
2017-09-08T18:01:49.249Z,27.20
2017-09-08T18:04:26.210Z,27.20
2017-09-08T18:06:58.134Z,27.20
2017-09-08T18:09:31.646Z,27.20
2017-09-08T18:12:03.899Z,27.20
2017-09-08T18:14:34.571Z,27.20
2017-09-08T18:17:05.027Z,27.20
2017-09-08T18:19:35.533Z,27.20
2017-09-08T18:22:06.793Z,27.20
2017-09-08T18:24:37.952Z,27.20
2017-09-08T18:27:08.420Z,27.20
2017-09-08T18:29:39.323Z,27.20
2017-09-08T18:32:09.817Z,27.10
2017-09-08T18:34:41.145Z,27.10
2017-09-08T18:37:11.598Z,27.10
2017-09-08T18:39:43.043Z,27.10
2017-09-08T18:42:14.775Z,27.10
2017-09-08T18:44:45.300Z,27.00
2017-09-08T18:47:15.845Z,27.10
2017-09-08T18:49:46.350Z,27.10
2017-09-08T18:52:17.974Z,27.10
2017-09-08T18:54:50.335Z,27.10
2017-09-08T18:57:22.141Z,27.10
2017-09-08T18:59:54.406Z,27.10
2017-09-08T19:02:26.264Z,27.10
2017-09-08T19:04:58.134Z,27.10
2017-09-08T19:07:29.977Z,27.10
2017-09-08T19:10:01.563Z,27.10
2017-09-08T19:12:33.539Z,27.10
2017-09-08T19:15:04.910Z,27.10
2017-09-08T19:17:36.418Z,27.10
2017-09-08T19:20:07.460Z,27.10
2017-09-08T19:22:38.602Z,27.10
2017-09-08T19:25:10.749Z,27.10
2017-09-08T19:27:41.990Z,27.10
2017-09-08T19:30:13.392Z,27.10
2017-09-08T19:32:44.557Z,27.10
2017-09-08T19:35:15.665Z,27.10
2017-09-08T19:37:46.807Z,27.10
2017-09-08T19:40:18.106Z,27.10
2017-09-08T19:42:49.663Z,27.10
2017-09-08T19:45:20.842Z,27.10
2017-09-08T19:47:51.937Z,27.10
2017-09-08T19:50:23.191Z,27.10
2017-09-08T19:52:54.364Z,27.10
2017-09-08T19:55:25.997Z,27.10
2017-09-08T19:57:57.236Z,27.10
2017-09-08T20:00:28.809Z,27.10
2017-09-08T20:02:59.956Z,27.10
2017-09-08T20:05:31.053Z,27.10
2017-09-08T20:08:02.195Z,27.10
2017-09-08T20:10:33.268Z,27.00
2017-09-08T20:13:04.895Z,27.00
2017-09-08T20:15:36.145Z,27.00
2017-09-08T20:18:07.499Z,27.00
2017-09-08T20:20:38.612Z,27.00
2017-09-08T20:23:09.672Z,27.00
2017-09-08T20:25:41.413Z,27.00
2017-09-08T20:28:12.473Z,27.00
2017-09-08T20:30:44.048Z,27.00
2017-09-08T20:33:15.187Z,27.00
2017-09-08T20:35:46.221Z,27.00
2017-09-08T20:38:17.325Z,27.00
2017-09-08T20:40:49.131Z,27.00
2017-09-08T20:43:20.920Z,27.00
2017-09-08T20:45:52.068Z,27.00
2017-09-08T20:48:23.253Z,27.00
2017-09-08T20:50:54.416Z,27.00
2017-09-08T20:53:25.614Z,27.00
2017-09-08T20:55:57.215Z,27.00
2017-09-08T20:58:28.264Z,27.00
2017-09-08T21:01:00.648Z,27.00
2017-09-08T21:03:31.822Z,27.00
2017-09-08T21:06:03.816Z,27.00
2017-09-08T21:08:35.028Z,27.00
2017-09-08T21:11:06.227Z,27.00
2017-09-08T21:13:37.834Z,27.00
2017-09-08T21:16:09.723Z,27.00
2017-09-08T21:18:40.909Z,27.00
2017-09-08T21:21:12.021Z,27.00
2017-09-08T21:23:43.152Z,27.00
2017-09-08T21:26:14.654Z,27.00
2017-09-08T21:28:45.805Z,27.00
2017-09-08T21:31:18.032Z,27.00
2017-09-08T21:33:49.202Z,27.00
2017-09-08T21:36:20.212Z,27.00
2017-09-08T21:38:51.334Z,27.00
2017-09-08T21:41:22.458Z,26.90
2017-09-08T21:43:56.061Z,26.90
2017-09-08T21:46:28.241Z,26.90
2017-09-08T21:49:00.308Z,26.90
2017-09-08T21:51:31.512Z,27.00
2017-09-08T21:54:02.752Z,27.00
2017-09-08T21:56:34.391Z,27.00
2017-09-08T21:59:05.594Z,27.00
2017-09-08T22:01:37.157Z,26.90
2017-09-08T22:04:08.313Z,26.90
2017-09-08T22:06:39.411Z,26.90
2017-09-08T22:09:10.511Z,26.80
2017-09-08T22:11:41.625Z,26.90
2017-09-08T22:14:13.088Z,26.90
2017-09-08T22:16:44.168Z,26.90
2017-09-08T22:19:20.167Z,26.90
2017-09-08T22:21:51.419Z,26.90
2017-09-08T22:24:22.626Z,26.90
2017-09-08T22:26:54.194Z,26.90
2017-09-08T22:29:25.295Z,26.90
2017-09-08T22:31:56.856Z,27.00
2017-09-08T22:34:27.993Z,27.00
2017-09-08T22:36:59.206Z,27.00
2017-09-08T22:39:30.462Z,27.10
2017-09-08T22:42:01.674Z,27.00
2017-09-08T22:44:33.935Z,27.00
2017-09-08T22:47:05.125Z,27.00
2017-09-08T22:49:36.173Z,27.00
2017-09-08T22:52:07.402Z,27.00
2017-09-08T22:54:38.673Z,27.00
2017-09-08T22:57:10.167Z,26.90
2017-09-08T22:59:41.246Z,26.90
2017-09-08T23:02:12.806Z,26.90
2017-09-08T23:04:43.897Z,26.90
2017-09-08T23:07:15.176Z,26.80
2017-09-08T23:09:46.261Z,26.80
2017-09-08T23:12:17.458Z,26.80
2017-09-08T23:14:49.044Z,26.80
2017-09-08T23:17:20.245Z,26.80
2017-09-08T23:19:51.330Z,26.80
2017-09-08T23:22:22.546Z,26.80
2017-09-08T23:24:53.761Z,26.90
2017-09-08T23:27:26.031Z,26.90
2017-09-08T23:29:57.089Z,26.80
2017-09-08T23:32:29.133Z,26.90
2017-09-08T23:35:00.173Z,26.90
2017-09-08T23:37:31.322Z,26.90
2017-09-08T23:40:03.189Z,26.90
2017-09-08T23:42:34.404Z,26.90
2017-09-08T23:45:05.948Z,26.90
2017-09-08T23:47:37.888Z,27.00
2017-09-08T23:50:08.945Z,27.00
2017-09-08T23:52:40.209Z,27.00
2017-09-08T23:55:12.524Z,27.00
2017-09-08T23:57:43.629Z,27.00
